sensor_id;sensor_type;location;lat;lon;timestamp;P1;durP1;ratioP1;P2;durP2;ratioP2
36391;SDS011;22639;42.690;23.356;2022-11-18T00:01:58;40.33;;;28.43;;
36391;SDS011;22639;42.690;23.356;2022-11-18T00:04:23;41.53;;;26.33;;
36391;SDS011;22639;42.690;23.356;2022-11-18T00:06:52;38.50;;;26.93;;
36391;SDS011;22639;42.690;23.356;2022-11-18T00:09:17;42.80;;;26.83;;
36391;SDS011;22639;42.690;23.356;2022-11-18T00:11:42;35.80;;;24.73;;
36391;SDS011;22639;42.690;23.356;2022-11-18T00:14:26;37.30;;;26.20;;
36391;SDS011;22639;42.690;23.356;2022-11-18T00:16:55;47.97;;;35.53;;
36391;SDS011;22639;42.690;23.356;2022-11-18T00:19:23;52.90;;;35.97;;
36391;SDS011;22639;42.690;23.356;2022-11-18T00:21:48;55.20;;;35.00;;
36391;SDS011;22639;42.690;23.356;2022-11-18T00:24:14;48.47;;;34.00;;
36391;SDS011;22639;42.690;23.356;2022-11-18T00:26:39;53.27;;;37.23;;
36391;SDS011;22639;42.690;23.356;2022-11-18T00:29:04;45.60;;;33.37;;
36391;SDS011;22639;42.690;23.356;2022-11-18T00:31:30;39.30;;;29.80;;
36391;SDS011;22639;42.690;23.356;2022-11-18T00:33:55;51.07;;;31.40;;
36391;SDS011;22639;42.690;23.356;2022-11-18T00:36:20;46.80;;;29.67;;
36391;SDS011;22639;42.690;23.356;2022-11-18T00:38:45;44.33;;;33.00;;
36391;SDS011;22639;42.690;23.356;2022-11-18T00:41:12;46.80;;;32.47;;
36391;SDS011;22639;42.690;23.356;2022-11-18T00:43:37;49.33;;;33.93;;
36391;SDS011;22639;42.690;23.356;2022-11-18T00:46:03;62.00;;;41.57;;
36391;SDS011;22639;42.690;23.356;2022-11-18T00:48:29;58.37;;;35.87;;
36391;SDS011;22639;42.690;23.356;2022-11-18T00:50:57;55.30;;;35.00;;
36391;SDS011;22639;42.690;23.356;2022-11-18T00:53:23;49.00;;;34.50;;
36391;SDS011;22639;42.690;23.356;2022-11-18T00:55:49;48.13;;;33.93;;
36391;SDS011;22639;42.690;23.356;2022-11-18T00:58:14;58.70;;;36.07;;
36391;SDS011;22639;42.690;23.356;2022-11-18T01:00:40;52.00;;;35.67;;
36391;SDS011;22639;42.690;23.356;2022-11-18T01:03:07;103.00;;;63.03;;
36391;SDS011;22639;42.690;23.356;2022-11-18T01:05:33;84.10;;;57.53;;
36391;SDS011;22639;42.690;23.356;2022-11-18T01:07:58;75.63;;;50.30;;
36391;SDS011;22639;42.690;23.356;2022-11-18T01:10:23;75.17;;;50.97;;
36391;SDS011;22639;42.690;23.356;2022-11-18T01:12:48;92.70;;;57.63;;
36391;SDS011;22639;42.690;23.356;2022-11-18T01:15:37;79.10;;;55.07;;
36391;SDS011;22639;42.690;23.356;2022-11-18T01:18:03;87.70;;;54.60;;
36391;SDS011;22639;42.690;23.356;2022-11-18T01:20:28;86.10;;;57.77;;
36391;SDS011;22639;42.690;23.356;2022-11-18T01:22:55;96.77;;;62.30;;
36391;SDS011;22639;42.690;23.356;2022-11-18T01:25:20;111.67;;;69.83;;
36391;SDS011;22639;42.690;23.356;2022-11-18T01:27:46;102.93;;;63.23;;
36391;SDS011;22639;42.690;23.356;2022-11-18T01:30:11;99.67;;;66.63;;
36391;SDS011;22639;42.690;23.356;2022-11-18T01:32:36;112.27;;;65.43;;
36391;SDS011;22639;42.690;23.356;2022-11-18T01:35:02;97.40;;;64.97;;
36391;SDS011;22639;42.690;23.356;2022-11-18T01:37:27;102.13;;;61.97;;
36391;SDS011;22639;42.690;23.356;2022-11-18T01:39:52;100.93;;;60.37;;
36391;SDS011;22639;42.690;23.356;2022-11-18T01:42:17;101.23;;;61.87;;
36391;SDS011;22639;42.690;23.356;2022-11-18T01:45:44;105.13;;;63.10;;
36391;SDS011;22639;42.690;23.356;2022-11-18T01:47:44;92.47;;;57.27;;
36391;SDS011;22639;42.690;23.356;2022-11-18T01:50:13;109.03;;;56.80;;
36391;SDS011;22639;42.690;23.356;2022-11-18T01:52:39;98.00;;;57.13;;
36391;SDS011;22639;42.690;23.356;2022-11-18T01:55:06;89.83;;;53.77;;
36391;SDS011;22639;42.690;23.356;2022-11-18T01:57:34;104.03;;;52.63;;
36391;SDS011;22639;42.690;23.356;2022-11-18T02:00:00;95.30;;;52.27;;
36391;SDS011;22639;42.690;23.356;2022-11-18T02:02:27;100.07;;;53.27;;
36391;SDS011;22639;42.690;23.356;2022-11-18T02:04:54;91.17;;;52.27;;
36391;SDS011;22639;42.690;23.356;2022-11-18T02:07:21;93.40;;;49.13;;
36391;SDS011;22639;42.690;23.356;2022-11-18T02:09:46;107.27;;;51.87;;
36391;SDS011;22639;42.690;23.356;2022-11-18T02:12:11;84.87;;;50.93;;
36391;SDS011;22639;42.690;23.356;2022-11-18T02:14:39;89.70;;;54.23;;
36391;SDS011;22639;42.690;23.356;2022-11-18T02:30:01;80.23;;;45.97;;
36391;SDS011;22639;42.690;23.356;2022-11-18T02:32:31;78.80;;;43.43;;
36391;SDS011;22639;42.690;23.356;2022-11-18T02:37:36;88.23;;;47.00;;
36391;SDS011;22639;42.690;23.356;2022-11-18T02:40:22;93.53;;;47.50;;
36391;SDS011;22639;42.690;23.356;2022-11-18T02:42:49;90.30;;;48.30;;
36391;SDS011;22639;42.690;23.356;2022-11-18T02:45:16;73.60;;;44.63;;
36391;SDS011;22639;42.690;23.356;2022-11-18T02:47:42;78.77;;;40.40;;
36391;SDS011;22639;42.690;23.356;2022-11-18T02:50:09;89.83;;;41.17;;
36391;SDS011;22639;42.690;23.356;2022-11-18T02:52:36;58.23;;;38.13;;
36391;SDS011;22639;42.690;23.356;2022-11-18T02:55:03;71.47;;;38.43;;
36391;SDS011;22639;42.690;23.356;2022-11-18T02:57:31;66.10;;;36.00;;
36391;SDS011;22639;42.690;23.356;2022-11-18T02:59:57;70.47;;;35.30;;
36391;SDS011;22639;42.690;23.356;2022-11-18T03:02:22;73.27;;;38.13;;
36391;SDS011;22639;42.690;23.356;2022-11-18T03:04:48;66.20;;;37.97;;
36391;SDS011;22639;42.690;23.356;2022-11-18T03:09:45;70.67;;;38.57;;
36391;SDS011;22639;42.690;23.356;2022-11-18T03:27:45;47.40;;;29.40;;
36391;SDS011;22639;42.690;23.356;2022-11-18T03:30:15;50.20;;;29.93;;
36391;SDS011;22639;42.690;23.356;2022-11-18T03:32:42;48.07;;;26.70;;
36391;SDS011;22639;42.690;23.356;2022-11-18T03:35:14;41.50;;;22.87;;
36391;SDS011;22639;42.690;23.356;2022-11-18T03:37:41;42.30;;;22.93;;
36391;SDS011;22639;42.690;23.356;2022-11-18T03:40:13;54.70;;;24.93;;
36391;SDS011;22639;42.690;23.356;2022-11-18T03:42:43;47.03;;;21.73;;
36391;SDS011;22639;42.690;23.356;2022-11-18T03:45:30;48.57;;;22.87;;
36391;SDS011;22639;42.690;23.356;2022-11-18T03:48:15;61.00;;;23.43;;
36391;SDS011;22639;42.690;23.356;2022-11-18T03:50:42;51.00;;;22.10;;
36391;SDS011;22639;42.690;23.356;2022-11-18T03:53:10;49.97;;;23.63;;
36391;SDS011;22639;42.690;23.356;2022-11-18T03:55:37;42.40;;;20.93;;
36391;SDS011;22639;42.690;23.356;2022-11-18T03:58:08;56.80;;;23.23;;
36391;SDS011;22639;42.690;23.356;2022-11-18T04:00:39;43.70;;;24.97;;
36391;SDS011;22639;42.690;23.356;2022-11-18T04:03:06;45.73;;;25.10;;
36391;SDS011;22639;42.690;23.356;2022-11-18T04:05:32;49.47;;;24.10;;
36391;SDS011;22639;42.690;23.356;2022-11-18T04:08:00;51.03;;;24.63;;
36391;SDS011;22639;42.690;23.356;2022-11-18T04:10:33;58.97;;;26.60;;
36391;SDS011;22639;42.690;23.356;2022-11-18T04:13:08;52.53;;;26.27;;
36391;SDS011;22639;42.690;23.356;2022-11-18T04:15:36;50.17;;;24.23;;
36391;SDS011;22639;42.690;23.356;2022-11-18T04:18:02;47.47;;;26.37;;
36391;SDS011;22639;42.690;23.356;2022-11-18T04:20:27;57.03;;;27.77;;
36391;SDS011;22639;42.690;23.356;2022-11-18T04:22:53;56.47;;;28.40;;
36391;SDS011;22639;42.690;23.356;2022-11-18T04:25:18;87.40;;;32.17;;
36391;SDS011;22639;42.690;23.356;2022-11-18T04:27:43;68.87;;;35.13;;
36391;SDS011;22639;42.690;23.356;2022-11-18T04:30:08;83.50;;;39.13;;
36391;SDS011;22639;42.690;23.356;2022-11-18T04:32:34;97.33;;;41.33;;
36391;SDS011;22639;42.690;23.356;2022-11-18T04:34:59;90.20;;;41.67;;
36391;SDS011;22639;42.690;23.356;2022-11-18T04:39:58;117.20;;;38.33;;
36391;SDS011;22639;42.690;23.356;2022-11-18T04:42:23;64.33;;;35.50;;
36391;SDS011;22639;42.690;23.356;2022-11-18T04:44:48;73.17;;;32.10;;
36391;SDS011;22639;42.690;23.356;2022-11-18T04:47:13;65.43;;;30.83;;
36391;SDS011;22639;42.690;23.356;2022-11-18T04:49:39;54.47;;;27.87;;
36391;SDS011;22639;42.690;23.356;2022-11-18T04:52:04;43.83;;;23.80;;
36391;SDS011;22639;42.690;23.356;2022-11-18T04:54:30;54.03;;;18.87;;
36391;SDS011;22639;42.690;23.356;2022-11-18T04:56:55;33.97;;;16.23;;
36391;SDS011;22639;42.690;23.356;2022-11-18T04:59:21;28.93;;;12.53;;
36391;SDS011;22639;42.690;23.356;2022-11-18T05:01:47;29.83;;;13.73;;
36391;SDS011;22639;42.690;23.356;2022-11-18T05:04:14;19.60;;;11.00;;
36391;SDS011;22639;42.690;23.356;2022-11-18T05:06:39;25.23;;;12.73;;
36391;SDS011;22639;42.690;23.356;2022-11-18T05:09:04;31.60;;;12.73;;
36391;SDS011;22639;42.690;23.356;2022-11-18T05:11:31;30.47;;;12.30;;
36391;SDS011;22639;42.690;23.356;2022-11-18T05:14:15;29.33;;;12.47;;
36391;SDS011;22639;42.690;23.356;2022-11-18T05:16:40;34.73;;;13.83;;
36391;SDS011;22639;42.690;23.356;2022-11-18T05:19:06;25.57;;;11.57;;
36391;SDS011;22639;42.690;23.356;2022-11-18T05:21:31;13.37;;;10.00;;
36391;SDS011;22639;42.690;23.356;2022-11-18T05:24:00;39.77;;;14.03;;
36391;SDS011;22639;42.690;23.356;2022-11-18T05:26:25;29.10;;;11.33;;
36391;SDS011;22639;42.690;23.356;2022-11-18T05:28:51;20.23;;;10.10;;
36391;SDS011;22639;42.690;23.356;2022-11-18T05:31:16;26.77;;;12.70;;
36391;SDS011;22639;42.690;23.356;2022-11-18T05:33:42;27.57;;;14.17;;
36391;SDS011;22639;42.690;23.356;2022-11-18T05:36:09;39.73;;;14.00;;
36391;SDS011;22639;42.690;23.356;2022-11-18T05:38:36;23.37;;;13.00;;
36391;SDS011;22639;42.690;23.356;2022-11-18T05:41:02;35.17;;;13.67;;
36391;SDS011;22639;42.690;23.356;2022-11-18T05:43:28;35.57;;;13.40;;
36391;SDS011;22639;42.690;23.356;2022-11-18T05:45:54;33.27;;;12.90;;
36391;SDS011;22639;42.690;23.356;2022-11-18T05:48:19;25.23;;;12.10;;
36391;SDS011;22639;42.690;23.356;2022-11-18T05:50:45;21.23;;;11.10;;
36391;SDS011;22639;42.690;23.356;2022-11-18T05:53:11;30.43;;;12.83;;
36391;SDS011;22639;42.690;23.356;2022-11-18T05:58:21;31.17;;;16.37;;
36391;SDS011;22639;42.690;23.356;2022-11-18T06:00:46;28.97;;;14.43;;
36391;SDS011;22639;42.690;23.356;2022-11-18T06:03:23;41.33;;;16.67;;
36391;SDS011;22639;42.690;23.356;2022-11-18T06:05:52;41.10;;;14.27;;
36391;SDS011;22639;42.690;23.356;2022-11-18T06:08:18;22.60;;;12.00;;
36391;SDS011;22639;42.690;23.356;2022-11-18T06:10:47;28.90;;;12.13;;
36391;SDS011;22639;42.690;23.356;2022-11-18T06:13:14;31.73;;;13.77;;
36391;SDS011;22639;42.690;23.356;2022-11-18T06:15:41;37.23;;;15.63;;
36391;SDS011;22639;42.690;23.356;2022-11-18T06:20:33;44.87;;;17.33;;
36391;SDS011;22639;42.690;23.356;2022-11-18T06:22:59;33.23;;;17.33;;
36391;SDS011;22639;42.690;23.356;2022-11-18T06:25:25;37.40;;;15.07;;
36391;SDS011;22639;42.690;23.356;2022-11-18T06:27:51;46.03;;;14.50;;
36391;SDS011;22639;42.690;23.356;2022-11-18T06:30:18;41.67;;;16.03;;
36391;SDS011;22639;42.690;23.356;2022-11-18T06:32:47;39.00;;;13.03;;
36391;SDS011;22639;42.690;23.356;2022-11-18T06:35:12;48.53;;;14.67;;
36391;SDS011;22639;42.690;23.356;2022-11-18T06:37:37;19.60;;;11.73;;
36391;SDS011;22639;42.690;23.356;2022-11-18T06:40:03;36.10;;;17.57;;
36391;SDS011;22639;42.690;23.356;2022-11-18T06:42:28;63.03;;;26.30;;
36391;SDS011;22639;42.690;23.356;2022-11-18T06:45:11;28.13;;;14.63;;
36391;SDS011;22639;42.690;23.356;2022-11-18T06:47:37;30.33;;;14.50;;
36391;SDS011;22639;42.690;23.356;2022-11-18T06:50:02;22.93;;;9.47;;
36391;SDS011;22639;42.690;23.356;2022-11-18T06:52:27;38.97;;;12.70;;
36391;SDS011;22639;42.690;23.356;2022-11-18T06:54:53;46.70;;;12.03;;
36391;SDS011;22639;42.690;23.356;2022-11-18T06:57:18;34.47;;;10.43;;
36391;SDS011;22639;42.690;23.356;2022-11-18T06:59:43;25.27;;;9.17;;
36391;SDS011;22639;42.690;23.356;2022-11-18T07:02:08;23.03;;;10.23;;
36391;SDS011;22639;42.690;23.356;2022-11-18T07:04:34;15.83;;;9.37;;
36391;SDS011;22639;42.690;23.356;2022-11-18T07:07:04;13.00;;;8.13;;
36391;SDS011;22639;42.690;23.356;2022-11-18T07:09:29;15.77;;;7.23;;
36391;SDS011;22639;42.690;23.356;2022-11-18T07:11:54;14.57;;;6.73;;
36391;SDS011;22639;42.690;23.356;2022-11-18T07:14:19;23.27;;;9.93;;
36391;SDS011;22639;42.690;23.356;2022-11-18T07:16:45;36.90;;;12.10;;
36391;SDS011;22639;42.690;23.356;2022-11-18T07:19:11;41.17;;;12.13;;
36391;SDS011;22639;42.690;23.356;2022-11-18T07:21:36;27.83;;;13.87;;
36391;SDS011;22639;42.690;23.356;2022-11-18T07:24:03;37.57;;;14.63;;
36391;SDS011;22639;42.690;23.356;2022-11-18T07:26:29;31.97;;;15.57;;
36391;SDS011;22639;42.690;23.356;2022-11-18T07:28:54;42.93;;;16.73;;
36391;SDS011;22639;42.690;23.356;2022-11-18T07:31:20;42.47;;;15.40;;
36391;SDS011;22639;42.690;23.356;2022-11-18T07:33:45;43.90;;;16.60;;
36391;SDS011;22639;42.690;23.356;2022-11-18T07:36:18;43.43;;;14.90;;
36391;SDS011;22639;42.690;23.356;2022-11-18T07:38:43;33.13;;;15.13;;
36391;SDS011;22639;42.690;23.356;2022-11-18T07:41:17;31.77;;;14.90;;
36391;SDS011;22639;42.690;23.356;2022-11-18T07:43:42;46.00;;;16.27;;
36391;SDS011;22639;42.690;23.356;2022-11-18T07:48:33;48.57;;;17.20;;
36391;SDS011;22639;42.690;23.356;2022-11-18T07:51:01;41.50;;;19.13;;
36391;SDS011;22639;42.690;23.356;2022-11-18T07:53:30;56.13;;;20.03;;
36391;SDS011;22639;42.690;23.356;2022-11-18T07:55:55;41.27;;;20.17;;
36391;SDS011;22639;42.690;23.356;2022-11-18T07:58:21;50.97;;;20.97;;
36391;SDS011;22639;42.690;23.356;2022-11-18T08:00:46;41.23;;;23.77;;
36391;SDS011;22639;42.690;23.356;2022-11-18T08:03:12;61.53;;;24.20;;
36391;SDS011;22639;42.690;23.356;2022-11-18T08:05:37;50.03;;;21.47;;
36391;SDS011;22639;42.690;23.356;2022-11-18T08:08:03;38.57;;;20.90;;
36391;SDS011;22639;42.690;23.356;2022-11-18T08:10:28;46.20;;;21.77;;
36391;SDS011;22639;42.690;23.356;2022-11-18T08:12:54;41.67;;;20.33;;
36391;SDS011;22639;42.690;23.356;2022-11-18T08:15:19;44.40;;;21.53;;
36391;SDS011;22639;42.690;23.356;2022-11-18T08:17:45;41.37;;;21.47;;
36391;SDS011;22639;42.690;23.356;2022-11-18T08:20:10;48.10;;;21.97;;
36391;SDS011;22639;42.690;23.356;2022-11-18T08:22:37;46.10;;;20.03;;
36391;SDS011;22639;42.690;23.356;2022-11-18T08:25:02;48.03;;;24.43;;
36391;SDS011;22639;42.690;23.356;2022-11-18T08:27:27;49.90;;;25.30;;
36391;SDS011;22639;42.690;23.356;2022-11-18T08:29:53;46.50;;;23.57;;
36391;SDS011;22639;42.690;23.356;2022-11-18T08:32:19;52.37;;;25.87;;
36391;SDS011;22639;42.690;23.356;2022-11-18T08:34:44;45.77;;;22.17;;
36391;SDS011;22639;42.690;23.356;2022-11-18T08:37:09;45.47;;;21.83;;
36391;SDS011;22639;42.690;23.356;2022-11-18T08:39:34;38.63;;;21.43;;
36391;SDS011;22639;42.690;23.356;2022-11-18T08:42:00;38.37;;;21.97;;
36391;SDS011;22639;42.690;23.356;2022-11-18T08:44:25;43.43;;;22.37;;
36391;SDS011;22639;42.690;23.356;2022-11-18T08:46:50;48.07;;;24.80;;
36391;SDS011;22639;42.690;23.356;2022-11-18T08:49:15;37.07;;;22.03;;
36391;SDS011;22639;42.690;23.356;2022-11-18T08:51:41;42.58;;;21.92;;
36391;SDS011;22639;42.690;23.356;2022-11-18T08:54:06;34.13;;;18.80;;
36391;SDS011;22639;42.690;23.356;2022-11-18T08:56:31;32.50;;;19.48;;
36391;SDS011;22639;42.690;23.356;2022-11-18T08:58:56;34.40;;;19.23;;
36391;SDS011;22639;42.690;23.356;2022-11-18T09:01:24;33.22;;;18.25;;
36391;SDS011;22639;42.690;23.356;2022-11-18T09:03:50;49.33;;;23.27;;
36391;SDS011;22639;42.690;23.356;2022-11-18T09:06:18;38.47;;;23.80;;
36391;SDS011;22639;42.690;23.356;2022-11-18T09:08:44;37.90;;;23.07;;
36391;SDS011;22639;42.690;23.356;2022-11-18T09:13:34;40.33;;;21.20;;
36391;SDS011;22639;42.690;23.356;2022-11-18T09:16:00;49.20;;;23.27;;
36391;SDS011;22639;42.690;23.356;2022-11-18T09:18:26;43.33;;;24.47;;
36391;SDS011;22639;42.690;23.356;2022-11-18T09:20:55;41.23;;;23.57;;
36391;SDS011;22639;42.690;23.356;2022-11-18T09:23:20;40.20;;;23.10;;
36391;SDS011;22639;42.690;23.356;2022-11-18T09:25:46;50.57;;;24.20;;
36391;SDS011;22639;42.690;23.356;2022-11-18T09:28:11;54.30;;;25.73;;
36391;SDS011;22639;42.690;23.356;2022-11-18T09:30:36;44.27;;;23.77;;
36391;SDS011;22639;42.690;23.356;2022-11-18T09:33:02;43.93;;;23.63;;
36391;SDS011;22639;42.690;23.356;2022-11-18T09:35:27;51.30;;;24.77;;
36391;SDS011;22639;42.690;23.356;2022-11-18T09:37:52;49.47;;;25.63;;
36391;SDS011;22639;42.690;23.356;2022-11-18T09:40:17;49.33;;;25.73;;
36391;SDS011;22639;42.690;23.356;2022-11-18T09:42:58;56.13;;;26.50;;
36391;SDS011;22639;42.690;23.356;2022-11-18T09:45:30;56.50;;;27.10;;
36391;SDS011;22639;42.690;23.356;2022-11-18T09:47:58;55.63;;;27.73;;
36391;SDS011;22639;42.690;23.356;2022-11-18T09:50:24;52.57;;;24.87;;
36391;SDS011;22639;42.690;23.356;2022-11-18T09:55:18;56.90;;;29.97;;
36391;SDS011;22639;42.690;23.356;2022-11-18T09:57:44;67.73;;;30.07;;
36391;SDS011;22639;42.690;23.356;2022-11-18T10:00:14;59.77;;;29.83;;
36391;SDS011;22639;42.690;23.356;2022-11-18T10:05:19;53.83;;;28.77;;
36391;SDS011;22639;42.690;23.356;2022-11-18T10:07:53;67.80;;;32.67;;
36391;SDS011;22639;42.690;23.356;2022-11-18T10:10:33;59.77;;;31.20;;
36391;SDS011;22639;42.690;23.356;2022-11-18T10:13:14;68.33;;;34.30;;
36391;SDS011;22639;42.690;23.356;2022-11-18T10:20:55;64.40;;;31.80;;
36391;SDS011;22639;42.690;23.356;2022-11-18T10:23:21;49.92;;;28.00;;
36391;SDS011;22639;42.690;23.356;2022-11-18T10:25:48;51.00;;;27.75;;
36391;SDS011;22639;42.690;23.356;2022-11-18T10:28:14;50.88;;;28.73;;
36391;SDS011;22639;42.690;23.356;2022-11-18T10:30:40;48.10;;;27.13;;
36391;SDS011;22639;42.690;23.356;2022-11-18T10:35:43;47.33;;;27.75;;
36391;SDS011;22639;42.690;23.356;2022-11-18T10:40:38;47.60;;;29.20;;
36391;SDS011;22639;42.690;23.356;2022-11-18T10:43:08;46.63;;;28.17;;
36391;SDS011;22639;42.690;23.356;2022-11-18T10:45:33;50.28;;;29.38;;
36391;SDS011;22639;42.690;23.356;2022-11-18T10:50:31;41.70;;;25.63;;
36391;SDS011;22639;42.690;23.356;2022-11-18T10:52:57;50.45;;;26.25;;
36391;SDS011;22639;42.690;23.356;2022-11-18T10:55:23;49.75;;;28.25;;
36391;SDS011;22639;42.690;23.356;2022-11-18T10:57:49;48.03;;;26.95;;
36391;SDS011;22639;42.690;23.356;2022-11-18T11:02:58;37.95;;;23.67;;
36391;SDS011;22639;42.690;23.356;2022-11-18T11:05:23;47.47;;;26.02;;
36391;SDS011;22639;42.690;23.356;2022-11-18T11:08:16;43.70;;;25.65;;
36391;SDS011;22639;42.690;23.356;2022-11-18T11:10:55;45.83;;;26.88;;
36391;SDS011;22639;42.690;23.356;2022-11-18T11:13:21;43.70;;;25.88;;
36391;SDS011;22639;42.690;23.356;2022-11-18T11:15:47;43.25;;;25.70;;
36391;SDS011;22639;42.690;23.356;2022-11-18T11:18:20;39.30;;;24.27;;
36391;SDS011;22639;42.690;23.356;2022-11-18T11:21:14;32.95;;;20.13;;
36391;SDS011;22639;42.690;23.356;2022-11-18T11:23:49;28.75;;;19.15;;
36391;SDS011;22639;42.690;23.356;2022-11-18T11:31:48;30.10;;;19.70;;
36391;SDS011;22639;42.690;23.356;2022-11-18T11:34:39;34.00;;;18.60;;
36391;SDS011;22639;42.690;23.356;2022-11-18T11:40:03;31.52;;;18.15;;
36391;SDS011;22639;42.690;23.356;2022-11-18T11:45:01;25.42;;;17.63;;
36391;SDS011;22639;42.690;23.356;2022-11-18T11:47:58;27.10;;;17.13;;
36391;SDS011;22639;42.690;23.356;2022-11-18T11:50:32;24.88;;;16.48;;
36391;SDS011;22639;42.690;23.356;2022-11-18T12:01:19;22.52;;;16.25;;
36391;SDS011;22639;42.690;23.356;2022-11-18T12:03:46;21.38;;;15.20;;
36391;SDS011;22639;42.690;23.356;2022-11-18T12:06:13;25.10;;;16.92;;
36391;SDS011;22639;42.690;23.356;2022-11-18T12:08:44;25.67;;;15.65;;
36391;SDS011;22639;42.690;23.356;2022-11-18T12:11:12;28.42;;;16.95;;
36391;SDS011;22639;42.690;23.356;2022-11-18T12:19:13;23.88;;;16.08;;
36391;SDS011;22639;42.690;23.356;2022-11-18T12:27:02;23.40;;;14.98;;
36391;SDS011;22639;42.690;23.356;2022-11-18T12:31:59;22.48;;;13.77;;
36391;SDS011;22639;42.690;23.356;2022-11-18T12:34:29;18.70;;;12.60;;
36391;SDS011;22639;42.690;23.356;2022-11-18T12:36:55;17.10;;;12.57;;
36391;SDS011;22639;42.690;23.356;2022-11-18T12:44:38;16.08;;;10.45;;
36391;SDS011;22639;42.690;23.356;2022-11-18T12:47:06;16.45;;;10.27;;
36391;SDS011;22639;42.690;23.356;2022-11-18T12:52:00;16.38;;;9.50;;
36391;SDS011;22639;42.690;23.356;2022-11-18T12:54:27;15.25;;;10.50;;
36391;SDS011;22639;42.690;23.356;2022-11-18T12:56:57;15.05;;;10.63;;
36391;SDS011;22639;42.690;23.356;2022-11-18T12:59:28;18.05;;;11.45;;
36391;SDS011;22639;42.690;23.356;2022-11-18T13:04:34;13.27;;;8.85;;
36391;SDS011;22639;42.690;23.356;2022-11-18T13:07:00;11.85;;;8.20;;
36391;SDS011;22639;42.690;23.356;2022-11-18T13:09:27;5.55;;;4.50;;
36391;SDS011;22639;42.690;23.356;2022-11-18T13:11:54;3.33;;;1.90;;
36391;SDS011;22639;42.690;23.356;2022-11-18T13:14:30;3.40;;;2.22;;
36391;SDS011;22639;42.690;23.356;2022-11-18T13:22:53;8.15;;;6.53;;
36391;SDS011;22639;42.690;23.356;2022-11-18T13:25:37;3.67;;;1.98;;
36391;SDS011;22639;42.690;23.356;2022-11-18T13:28:24;9.65;;;4.40;;
36391;SDS011;22639;42.690;23.356;2022-11-18T13:33:24;7.70;;;4.45;;
36391;SDS011;22639;42.690;23.356;2022-11-18T13:35:50;6.43;;;4.90;;
36391;SDS011;22639;42.690;23.356;2022-11-18T13:38:17;6.68;;;3.80;;
36391;SDS011;22639;42.690;23.356;2022-11-18T13:40:44;7.15;;;4.60;;
36391;SDS011;22639;42.690;23.356;2022-11-18T13:43:33;10.02;;;6.38;;
36391;SDS011;22639;42.690;23.356;2022-11-18T13:46:03;11.18;;;8.65;;
36391;SDS011;22639;42.690;23.356;2022-11-18T13:48:29;16.70;;;10.00;;
36391;SDS011;22639;42.690;23.356;2022-11-18T13:50:55;12.70;;;9.02;;
36391;SDS011;22639;42.690;23.356;2022-11-18T13:55:51;18.50;;;10.15;;
36391;SDS011;22639;42.690;23.356;2022-11-18T14:00:42;13.98;;;9.13;;
36391;SDS011;22639;42.690;23.356;2022-11-18T14:03:21;14.00;;;8.90;;
36391;SDS011;22639;42.690;23.356;2022-11-18T14:05:54;15.02;;;9.15;;
36391;SDS011;22639;42.690;23.356;2022-11-18T14:08:36;14.32;;;10.48;;
36391;SDS011;22639;42.690;23.356;2022-11-18T14:11:10;8.77;;;6.97;;
36391;SDS011;22639;42.690;23.356;2022-11-18T14:13:36;11.88;;;8.38;;
36391;SDS011;22639;42.690;23.356;2022-11-18T14:18:46;12.43;;;7.40;;
36391;SDS011;22639;42.690;23.356;2022-11-18T14:21:12;14.07;;;9.43;;
36391;SDS011;22639;42.690;23.356;2022-11-18T14:23:40;15.90;;;9.15;;
36391;SDS011;22639;42.690;23.356;2022-11-18T14:26:06;13.48;;;9.32;;
36391;SDS011;22639;42.690;23.356;2022-11-18T14:28:37;12.68;;;9.52;;
36391;SDS011;22639;42.690;23.356;2022-11-18T14:35:57;15.50;;;9.45;;
36391;SDS011;22639;42.690;23.356;2022-11-18T14:41:04;14.48;;;9.05;;
36391;SDS011;22639;42.690;23.356;2022-11-18T14:43:30;12.93;;;9.48;;
36391;SDS011;22639;42.690;23.356;2022-11-18T14:45:56;11.02;;;8.82;;
36391;SDS011;22639;42.690;23.356;2022-11-18T14:48:23;18.65;;;9.50;;
36391;SDS011;22639;42.690;23.356;2022-11-18T14:50:49;11.88;;;8.23;;
36391;SDS011;22639;42.690;23.356;2022-11-18T14:53:14;18.17;;;9.95;;
36391;SDS011;22639;42.690;23.356;2022-11-18T14:55:40;16.83;;;10.20;;
36391;SDS011;22639;42.690;23.356;2022-11-18T14:58:08;16.55;;;9.57;;
36391;SDS011;22639;42.690;23.356;2022-11-18T15:00:35;14.45;;;8.30;;
36391;SDS011;22639;42.690;23.356;2022-11-18T15:03:00;14.15;;;8.77;;
36391;SDS011;22639;42.690;23.356;2022-11-18T15:05:25;12.00;;;8.35;;
36391;SDS011;22639;42.690;23.356;2022-11-18T15:07:50;12.35;;;7.25;;
36391;SDS011;22639;42.690;23.356;2022-11-18T15:10:16;4.38;;;3.08;;
36391;SDS011;22639;42.690;23.356;2022-11-18T15:12:41;1.70;;;1.33;;
36391;SDS011;22639;42.690;23.356;2022-11-18T15:15:06;1.60;;;1.50;;
36391;SDS011;22639;42.690;23.356;2022-11-18T15:17:32;3.10;;;1.33;;
36391;SDS011;22639;42.690;23.356;2022-11-18T15:19:57;1.65;;;1.42;;
36391;SDS011;22639;42.690;23.356;2022-11-18T15:22:22;2.03;;;1.70;;
36391;SDS011;22639;42.690;23.356;2022-11-18T15:24:47;1.55;;;1.45;;
36391;SDS011;22639;42.690;23.356;2022-11-18T15:27:13;8.50;;;2.17;;
36391;SDS011;22639;42.690;23.356;2022-11-18T15:29:38;2.05;;;1.42;;
36391;SDS011;22639;42.690;23.356;2022-11-18T15:32:06;4.20;;;1.83;;
36391;SDS011;22639;42.690;23.356;2022-11-18T15:34:32;2.33;;;1.52;;
36391;SDS011;22639;42.690;23.356;2022-11-18T15:36:57;3.42;;;2.13;;
36391;SDS011;22639;42.690;23.356;2022-11-18T15:39:22;3.88;;;1.73;;
36391;SDS011;22639;42.690;23.356;2022-11-18T15:41:47;3.50;;;2.67;;
36391;SDS011;22639;42.690;23.356;2022-11-18T15:44:13;4.03;;;2.50;;
36391;SDS011;22639;42.690;23.356;2022-11-18T15:46:38;3.60;;;2.85;;
36391;SDS011;22639;42.690;23.356;2022-11-18T15:49:03;2.45;;;2.25;;
36391;SDS011;22639;42.690;23.356;2022-11-18T15:51:29;4.18;;;3.10;;
36391;SDS011;22639;42.690;23.356;2022-11-18T15:53:54;5.90;;;4.22;;
36391;SDS011;22639;42.690;23.356;2022-11-18T15:58:51;7.93;;;4.05;;
36391;SDS011;22639;42.690;23.356;2022-11-18T16:01:17;4.57;;;2.90;;
36391;SDS011;22639;42.690;23.356;2022-11-18T16:03:42;4.15;;;3.30;;
36391;SDS011;22639;42.690;23.356;2022-11-18T16:06:08;3.95;;;3.55;;
36391;SDS011;22639;42.690;23.356;2022-11-18T16:08:33;2.22;;;1.95;;
36391;SDS011;22639;42.690;23.356;2022-11-18T16:10:58;4.57;;;3.85;;
36391;SDS011;22639;42.690;23.356;2022-11-18T16:13:42;4.75;;;4.25;;
36391;SDS011;22639;42.690;23.356;2022-11-18T16:16:16;5.85;;;3.55;;
36391;SDS011;22639;42.690;23.356;2022-11-18T16:18:41;9.38;;;4.75;;
36391;SDS011;22639;42.690;23.356;2022-11-18T16:21:07;3.47;;;2.95;;
36391;SDS011;22639;42.690;23.356;2022-11-18T16:23:32;5.00;;;2.85;;
36391;SDS011;22639;42.690;23.356;2022-11-18T16:25:57;3.42;;;3.13;;
36391;SDS011;22639;42.690;23.356;2022-11-18T16:28:28;5.25;;;4.55;;
36391;SDS011;22639;42.690;23.356;2022-11-18T16:30:53;4.07;;;3.67;;
36391;SDS011;22639;42.690;23.356;2022-11-18T16:33:37;7.60;;;3.75;;